createdAt,value
2019-01-20T00:00:02.599Z,11.53
2019-01-20T00:05:11.491Z,13.30
2019-01-20T00:10:18.859Z,13.93
2019-01-20T00:15:25.050Z,8.67
2019-01-20T00:20:32.225Z,9.20
2019-01-20T00:25:40.741Z,13.87
2019-01-20T00:30:48.716Z,9.97
2019-01-20T00:36:15.868Z,14.90
2019-01-20T00:41:24.713Z,14.93
2019-01-20T00:46:32.212Z,14.83
2019-01-20T00:51:39.481Z,12.63
2019-01-20T00:56:48.480Z,7.83
2019-01-20T01:01:55.566Z,9.97
2019-01-20T01:07:04.678Z,17.00
2019-01-20T01:12:15.984Z,28.50
2019-01-20T01:17:23.321Z,10.73
2019-01-20T01:22:30.505Z,12.83
2019-01-20T01:27:39.347Z,15.60
2019-01-20T01:32:46.370Z,17.53
2019-01-20T01:37:52.900Z,12.87
2019-01-20T01:42:58.779Z,12.50
2019-01-20T01:48:04.845Z,14.33
2019-01-20T01:53:10.884Z,17.00
2019-01-20T01:58:16.755Z,13.37
2019-01-20T02:03:22.828Z,7.63
2019-01-20T02:08:30.063Z,9.53
2019-01-20T02:13:40.299Z,14.80
2019-01-20T02:18:46.407Z,16.27
2019-01-20T02:23:53.568Z,17.37
2019-01-20T02:29:07.768Z,14.53
2019-01-20T02:34:15.429Z,17.10
2019-01-20T02:39:21.566Z,14.97
2019-01-20T02:44:28.962Z,19.37
2019-01-20T02:49:36.477Z,19.70
2019-01-20T02:54:43.767Z,17.63
2019-01-20T02:59:50.968Z,22.03
2019-01-20T03:04:58.224Z,16.93
2019-01-20T03:10:06.368Z,21.90
2019-01-20T03:15:12.891Z,16.03
2019-01-20T03:20:21.560Z,14.80
2019-01-20T03:25:28.200Z,18.37
2019-01-20T03:30:35.693Z,13.37
2019-01-20T03:35:44.789Z,13.67
2019-01-20T03:40:50.709Z,19.97
2019-01-20T03:46:00.406Z,14.50
2019-01-20T03:51:06.624Z,18.47
2019-01-20T03:56:13.808Z,16.67
2019-01-20T04:01:21.698Z,14.03
2019-01-20T04:06:29.115Z,14.50
2019-01-20T04:11:36.838Z,13.47
2019-01-20T04:16:43.271Z,16.30
2019-01-20T04:21:50.453Z,13.33
2019-01-20T04:26:58.068Z,18.93
2019-01-20T04:32:05.172Z,23.80
2019-01-20T04:37:14.257Z,18.13
2019-01-20T04:42:28.754Z,17.70
2019-01-20T04:47:29.557Z,15.93
2019-01-20T04:52:37.173Z,18.30
2019-01-20T04:57:47.475Z,17.33
2019-01-20T05:02:54.387Z,14.23
2019-01-20T05:08:02.447Z,14.47
2019-01-20T05:13:09.764Z,22.03
2019-01-20T05:18:16.836Z,22.37
2019-01-20T05:23:24.012Z,22.07
2019-01-20T05:28:29.949Z,22.67
2019-01-20T05:33:38.024Z,19.97
2019-01-20T05:38:45.905Z,17.90
2019-01-20T05:43:52.238Z,16.30
2019-01-20T05:48:58.151Z,21.00
2019-01-20T05:54:05.179Z,20.00
2019-01-20T05:59:13.079Z,19.93
2019-01-20T06:04:20.229Z,21.37
2019-01-20T06:09:26.550Z,15.83
2019-01-20T06:14:34.435Z,20.60
2019-01-20T06:19:41.725Z,13.67
2019-01-20T06:24:49.869Z,18.57
2019-01-20T06:29:56.336Z,21.57
2019-01-20T06:35:05.583Z,16.33
2019-01-20T06:40:32.107Z,23.17
2019-01-20T06:45:39.958Z,19.73
2019-01-20T06:50:45.927Z,20.33
2019-01-20T06:55:51.995Z,18.33
2019-01-20T07:00:59.112Z,16.90
2019-01-20T07:06:06.413Z,18.37
2019-01-20T07:11:13.871Z,21.63
2019-01-20T07:16:21.644Z,28.03
2019-01-20T07:21:28.336Z,19.67
2019-01-20T07:26:34.543Z,18.07
2019-01-20T07:31:41.462Z,20.03
2019-01-20T07:36:48.809Z,16.73
2019-01-20T07:41:54.940Z,24.80
2019-01-20T07:47:02.037Z,22.53
2019-01-20T07:52:09.014Z,19.47
2019-01-20T07:57:16.760Z,22.80
2019-01-20T08:02:24.486Z,20.37
2019-01-20T08:07:32.043Z,22.23
2019-01-20T08:12:39.278Z,26.63
2019-01-20T08:17:46.384Z,21.73
2019-01-20T08:22:54.082Z,24.10
2019-01-20T08:28:02.002Z,27.13
2019-01-20T08:33:10.305Z,19.00
2019-01-20T08:38:17.800Z,27.23
2019-01-20T08:43:31.557Z,27.57
2019-01-20T08:48:33.820Z,33.30
2019-01-20T08:53:40.636Z,30.87
2019-01-20T08:58:46.536Z,31.53
2019-01-20T09:03:53.487Z,31.57
2019-01-20T09:09:01.120Z,29.83
2019-01-20T09:14:08.480Z,24.83
2019-01-20T09:19:15.326Z,29.33
2019-01-20T09:24:22.730Z,53.13
2019-01-20T09:29:30.641Z,32.97
2019-01-20T09:34:36.848Z,29.30
2019-01-20T09:39:44.246Z,32.80
2019-01-20T09:44:51.190Z,29.60
2019-01-20T09:49:59.409Z,28.23
2019-01-20T09:55:08.410Z,42.27
2019-01-20T10:00:16.823Z,31.90
2019-01-20T10:05:23.390Z,35.10
2019-01-20T10:10:29.866Z,30.73
2019-01-20T10:15:44.173Z,35.77
2019-01-20T10:20:51.116Z,27.77
2019-01-20T10:25:57.422Z,35.90
2019-01-20T10:31:05.977Z,35.27
2019-01-20T10:36:12.559Z,36.53
2019-01-20T10:41:20.418Z,30.50
2019-01-20T10:46:30.834Z,31.50
2019-01-20T10:51:38.339Z,31.57
2019-01-20T10:56:45.990Z,34.47
2019-01-20T11:01:53.393Z,42.60
2019-01-20T11:07:00.828Z,39.83
2019-01-20T11:12:08.584Z,42.83
2019-01-20T11:17:15.034Z,37.17
2019-01-20T11:22:23.301Z,41.63
2019-01-20T11:27:30.655Z,35.37
2019-01-20T11:32:42.303Z,44.40
2019-01-20T11:37:45.534Z,37.33
2019-01-20T11:42:53.788Z,36.60
2019-01-20T11:47:59.760Z,34.20
2019-01-20T11:53:05.927Z,35.50
2019-01-20T11:58:15.069Z,33.90
2019-01-20T12:03:21.111Z,34.50
2019-01-20T12:08:30.703Z,34.00
2019-01-20T12:13:37.033Z,31.83
2019-01-20T12:18:44.676Z,36.67
2019-01-20T12:23:51.983Z,31.00
2019-01-20T12:28:58.499Z,30.73
2019-01-20T12:34:05.615Z,31.67
2019-01-20T12:39:12.618Z,32.50
2019-01-20T12:44:21.098Z,28.13
2019-01-20T12:49:28.373Z,33.33
2019-01-20T12:54:35.473Z,35.03
2019-01-20T12:59:43.216Z,61.27
2019-01-20T13:04:51.128Z,31.33
2019-01-20T13:09:58.417Z,43.60
2019-01-20T13:15:05.403Z,37.90
2019-01-20T13:20:16.721Z,31.70
2019-01-20T13:25:25.074Z,24.17
2019-01-20T13:30:31.439Z,25.27
2019-01-20T13:35:40.071Z,35.70
2019-01-20T13:40:49.309Z,34.87
2019-01-20T13:45:56.652Z,30.83
2019-01-20T13:51:02.681Z,35.23
2019-01-20T13:56:09.037Z,35.13
2019-01-20T14:01:17.027Z,35.17
2019-01-20T14:06:24.110Z,36.37
2019-01-20T14:11:30.135Z,32.03
2019-01-20T14:16:37.553Z,30.80
2019-01-20T14:21:45.030Z,28.10
2019-01-20T14:26:53.726Z,36.67
2019-01-20T14:32:01.072Z,28.90
2019-01-20T14:37:08.115Z,38.70
2019-01-20T14:42:15.305Z,43.17
2019-01-20T14:47:22.983Z,30.53
2019-01-20T14:52:30.845Z,41.37
2019-01-20T14:57:37.280Z,34.10
2019-01-20T15:02:45.241Z,26.07
2019-01-20T15:07:51.602Z,33.53
2019-01-20T15:12:58.826Z,39.97
2019-01-20T15:18:06.688Z,34.43
2019-01-20T15:23:13.728Z,33.60
2019-01-20T15:28:21.117Z,41.57
2019-01-20T15:33:28.311Z,41.33
2019-01-20T15:38:36.579Z,35.20
2019-01-20T15:43:44.118Z,41.80
2019-01-20T15:48:51.572Z,33.93
2019-01-20T15:53:59.183Z,40.10
2019-01-20T15:59:08.200Z,39.07
2019-01-20T16:04:14.682Z,31.93
2019-01-20T16:09:22.051Z,35.97
2019-01-20T16:14:28.419Z,33.87
2019-01-20T16:19:36.056Z,37.63
2019-01-20T16:24:42.861Z,41.77
2019-01-20T16:29:49.290Z,34.17
2019-01-20T16:34:55.965Z,37.07
2019-01-20T16:40:02.531Z,42.90
2019-01-20T16:45:12.140Z,40.00
2019-01-20T16:50:21.205Z,40.70
2019-01-20T16:55:31.033Z,35.03
2019-01-20T17:00:39.977Z,29.07
2019-01-20T17:05:59.422Z,37.77
2019-01-20T17:11:09.207Z,31.57
2019-01-20T17:16:16.785Z,32.70
2019-01-20T17:21:25.443Z,33.03
2019-01-20T17:26:36.488Z,30.73
2019-01-20T17:31:42.336Z,29.73
2019-01-20T17:36:49.998Z,33.00
2019-01-20T17:41:57.446Z,41.50
2019-01-20T17:47:06.966Z,32.83
2019-01-20T17:52:13.895Z,32.43
2019-01-20T17:57:27.106Z,41.90
2019-01-20T18:02:35.911Z,37.13
2019-01-20T18:07:42.989Z,36.67
2019-01-20T18:12:53.231Z,32.83
2019-01-20T18:17:59.411Z,28.90
2019-01-20T18:23:05.774Z,34.50
2019-01-20T18:28:13.866Z,34.17
2019-01-20T18:33:19.675Z,30.60
2019-01-20T18:38:26.359Z,38.67
2019-01-20T18:43:33.279Z,42.93
2019-01-20T18:48:40.975Z,31.00
2019-01-20T18:53:48.829Z,32.83
2019-01-20T18:58:56.003Z,29.67
2019-01-20T19:04:03.526Z,28.50
2019-01-20T19:09:10.007Z,29.57
2019-01-20T19:14:17.479Z,29.57
2019-01-20T19:19:26.293Z,26.67
2019-01-20T19:24:32.974Z,32.90
2019-01-20T19:29:40.923Z,29.00
2019-01-20T19:34:48.612Z,29.47
2019-01-20T19:39:56.080Z,31.67
2019-01-20T19:45:03.820Z,29.83
2019-01-20T19:50:10.975Z,31.63
2019-01-20T19:55:24.026Z,28.27
2019-01-20T20:00:31.180Z,31.20
2019-01-20T20:05:40.739Z,27.17
2019-01-20T20:10:48.210Z,26.23
2019-01-20T20:15:55.168Z,20.87
2019-01-20T20:21:02.779Z,29.40
2019-01-20T20:26:09.171Z,27.03
2019-01-20T20:31:16.563Z,29.67
2019-01-20T20:36:26.011Z,29.43
2019-01-20T20:41:33.711Z,23.30
2019-01-20T20:46:41.485Z,27.60
2019-01-20T20:51:51.110Z,33.10
2019-01-20T20:56:57.974Z,31.97
2019-01-20T21:02:05.346Z,24.23
2019-01-20T21:07:11.568Z,29.07
2019-01-20T21:12:17.951Z,31.73
2019-01-20T21:17:25.552Z,24.67
2019-01-20T21:22:32.897Z,26.73
2019-01-20T21:27:40.784Z,25.93
2019-01-20T21:32:46.867Z,30.70
2019-01-20T21:37:54.971Z,29.60
2019-01-20T21:43:02.917Z,28.63
2019-01-20T21:48:09.209Z,32.13
2019-01-20T21:53:16.577Z,25.10
2019-01-20T21:58:23.384Z,27.00
2019-01-20T22:03:31.143Z,27.70
2019-01-20T22:08:38.970Z,27.63
2019-01-20T22:13:46.508Z,29.53
2019-01-20T22:18:52.720Z,24.73
2019-01-20T22:24:00.280Z,32.13
2019-01-20T22:29:07.760Z,30.50
2019-01-20T22:34:14.670Z,29.50
2019-01-20T22:39:22.078Z,22.60
2019-01-20T22:44:28.756Z,28.17
2019-01-20T22:49:36.387Z,25.80
2019-01-20T22:54:43.793Z,27.80
2019-01-20T22:59:51.139Z,26.67
2019-01-20T23:04:57.616Z,27.30
2019-01-20T23:10:06.142Z,27.23
2019-01-20T23:15:12.534Z,25.07
2019-01-20T23:20:18.884Z,24.80
2019-01-20T23:25:25.685Z,32.33
2019-01-20T23:30:33.569Z,21.70
2019-01-20T23:35:40.014Z,28.93
2019-01-20T23:40:46.267Z,24.77
2019-01-20T23:45:53.754Z,24.37
2019-01-20T23:51:00.697Z,25.70
2019-01-20T23:56:08.545Z,22.50
